Sofi IV — ZJL8378 — position and weather

sailwx.info

Track history (hours):
 
Tides and Currents Weather Stations Pressure Air Temp Water Temp Dewpoint Dewpoint Depression Visibility Wind Speed Wind Dir Waves Ship Positions

Sofi IV

Last reported at 2018-Jan-04 20:08 UTC. Time now 2018-Feb-25 23:58 UTC.
Position N 26°06' W 080°10'.
Warning: this ship's position is 52 days out of date.

Type: Pleasure craft. MMSI: 378111713.

Date/timePositionNaut miles runAvg speedWind from/ knotsBaromVisibWave heightAir tempDewpointWater temp
2018-Jan-04 20:08N 26°06' W 080°10'0 0.0
2018-Jan-03 00:07N 26°06' W 080°10'0 0.0
2018-Jan-02 23:37N 26°06' W 080°10'0 0.0
2018-Jan-02 22:40N 26°06' W 080°10'0 0.0
2018-Jan-02 11:07N 26°06' W 080°10'0 0.0
2018-Jan-02 10:52N 26°06' W 080°10'0 0.0
2018-Jan-02 10:07N 26°06' W 080°10'0 0.0
2018-Jan-02 09:49N 26°06' W 080°10'0 0.0
2018-Jan-02 09:25N 26°06' W 080°10'0 0.0
2018-Jan-02 07:55N 26°06' W 080°10'0 0.0
2018-Jan-02 07:25N 26°06' W 080°10'0 0.0
2018-Jan-01 23:01N 26°06' W 080°10'0 0.0
2018-Jan-01 21:34N 26°06' W 080°10'0 0.0
2018-Jan-01 21:22N 26°06' W 080°10'0 0.0
2018-Jan-01 19:04N 26°06' W 080°10'4 2.3
2018-Jan-01 17:20N 26°05' W 080°05'11 4.7
2018-Jan-01 14:53N 25°54' W 080°09'0 0.0
2018-Jan-01 13:56N 25°54' W 080°09'0 0.0
2018-Jan-01 13:05N 25°54' W 080°09'0 0.0
2018-Jan-01 12:56N 25°54' W 080°09'0 0.0
2018-Jan-01 05:17N 25°54' W 080°09'0 0.0
2018-Jan-01 04:47N 25°54' W 080°09'0 0.0
2018-Jan-01 03:47N 25°54' W 080°09'0 0.0
2018-Jan-01 01:38N 25°54' W 080°09'0 0.0
2017-Dec-31 14:35N 25°54' W 080°09'0 0.0
2017-Dec-31 14:29N 25°54' W 080°09'0 0.0
2017-Dec-31 13:17N 25°54' W 080°09'0 0.0
2017-Dec-31 12:53N 25°54' W 080°09'0 0.0
2017-Dec-31 12:23N 25°54' W 080°09'0 0.0
2017-Dec-31 11:53N 25°54' W 080°09'0 0.0
2017-Dec-31 11:05N 25°54' W 080°09'0 0.0
2017-Dec-31 10:23N 25°54' W 080°09'0 0.0
2017-Dec-31 09:53N 25°54' W 080°09'0 0.0
2017-Dec-31 09:05N 25°54' W 080°09'0 0.0
2017-Dec-31 08:53N 25°54' W 080°09'0 0.0
2017-Dec-31 08:23N 25°54' W 080°09'0 0.0
2017-Dec-31 07:53N 25°54' W 080°09'0 0.0
2017-Dec-31 06:14N 25°54' W 080°09'0 0.0
2017-Dec-31 05:11N 25°54' W 080°09'0 0.0
2017-Dec-31 04:44N 25°54' W 080°09'0 0.0
2017-Dec-31 00:20N 25°54' W 080°09'0 0.0
2017-Dec-30 23:50N 25°54' W 080°09'0 0.0
2017-Dec-30 23:17N 25°54' W 080°09'0 0.0
2017-Dec-30 23:00N 25°54' W 080°09'913.5
2017-Dec-30 22:21N 26°02' W 080°06'6 3.7
2017-Dec-30 20:51N 26°06' W 080°10'0 0.1
2017-Dec-30 19:48N 26°06' W 080°10'0 0.0
2017-Dec-29 04:13N 26°06' W 080°10'0 0.0
2017-Dec-29 03:58N 26°06' W 080°10'0 0.0
2017-Dec-28 21:04N 26°06' W 080°10'0 0.0
2017-Dec-28 18:40N 26°06' W 080°10'0 0.0
2017-Dec-28 18:10N 26°06' W 080°10'0 0.0
2017-Dec-28 17:49N 26°06' W 080°10'0 0.0
2017-Dec-28 14:28N 26°06' W 080°10'0 0.0
2017-Dec-28 05:46N 26°06' W 080°10'0 0.0
2017-Dec-27 06:49N 26°06' W 080°10'0 0.0
2017-Dec-27 06:22N 26°06' W 080°10'0 0.0
2017-Dec-27 04:18N 26°06' W 080°10'0 0.0
2017-Dec-27 03:51N 26°06' W 080°10'0 0.0
2017-Dec-26 21:00N 26°06' W 080°10'0 0.0
2017-Dec-26 20:15N 26°06' W 080°10'0 0.0
2017-Dec-26 19:42N 26°06' W 080°10'0 0.0
2017-Dec-26 19:27N 26°06' W 080°10'0 0.0
2017-Dec-26 18:57N 26°06' W 080°10'0 0.0
2017-Dec-26 18:15N 26°06' W 080°10'0 0.0
2017-Dec-26 17:57N 26°06' W 080°10'0 0.0
2017-Dec-26 17:27N 26°06' W 080°10'0 0.0
2017-Dec-26 17:00N 26°06' W 080°10'0 0.0
2017-Dec-26 16:30N 26°06' W 080°10'0 0.0
2017-Dec-26 15:57N 26°06' W 080°10'0 0.0
2017-Dec-26 15:27N 26°06' W 080°10'0 0.0
2017-Dec-26 14:48N 26°06' W 080°10'0 0.0
2017-Dec-26 14:30N 26°06' W 080°10'0 0.0
2017-Dec-26 12:33N 26°06' W 080°10'0 0.0
2017-Dec-26 12:15N 26°06' W 080°10'0 0.0
2017-Dec-26 02:27N 26°06' W 080°10'0 0.0
2017-Dec-26 01:27N 26°06' W 080°10'0 0.0
2017-Dec-26 00:57N 26°06' W 080°10'0 0.0
2017-Dec-26 00:09N 26°06' W 080°10'  
Track history (hours):
 
Tides and Currents Weather Stations Pressure Air Temp Water Temp Dewpoint Dewpoint Depression Visibility Wind Speed Wind Dir Waves Ship Positions

Sofi IV

Last reported at 2018-Jan-04 20:08 UTC. Time now 2018-Feb-25 23:58 UTC.
Position N 26°06' W 080°10'.
Warning: this ship's position is 52 days out of date.

Type: Pleasure craft. MMSI: 378111713.

Date/timePositionNaut miles runAvg speedWind from/ knotsBaromVisibWave heightAir tempDewpointWater temp
2018-Jan-04 20:08N 26°06' W 080°10'0 0.0
2018-Jan-03 00:07N 26°06' W 080°10'0 0.0
2018-Jan-02 23:37N 26°06' W 080°10'0 0.0
2018-Jan-02 22:40N 26°06' W 080°10'0 0.0
2018-Jan-02 11:07N 26°06' W 080°10'0 0.0
2018-Jan-02 10:52N 26°06' W 080°10'0 0.0
2018-Jan-02 10:07N 26°06' W 080°10'0 0.0
2018-Jan-02 09:49N 26°06' W 080°10'0 0.0
2018-Jan-02 09:25N 26°06' W 080°10'0 0.0
2018-Jan-02 07:55N 26°06' W 080°10'0 0.0
2018-Jan-02 07:25N 26°06' W 080°10'0 0.0
2018-Jan-01 23:01N 26°06' W 080°10'0 0.0
2018-Jan-01 21:34N 26°06' W 080°10'0 0.0
2018-Jan-01 21:22N 26°06' W 080°10'0 0.0
2018-Jan-01 19:04N 26°06' W 080°10'4 2.3
2018-Jan-01 17:20N 26°05' W 080°05'11 4.7
2018-Jan-01 14:53N 25°54' W 080°09'0 0.0
2018-Jan-01 13:56N 25°54' W 080°09'0 0.0
2018-Jan-01 13:05N 25°54' W 080°09'0 0.0
2018-Jan-01 12:56N 25°54' W 080°09'0 0.0
2018-Jan-01 05:17N 25°54' W 080°09'0 0.0
2018-Jan-01 04:47N 25°54' W 080°09'0 0.0
2018-Jan-01 03:47N 25°54' W 080°09'0 0.0
2018-Jan-01 01:38N 25°54' W 080°09'0 0.0
2017-Dec-31 14:35N 25°54' W 080°09'0 0.0
2017-Dec-31 14:29N 25°54' W 080°09'0 0.0
2017-Dec-31 13:17N 25°54' W 080°09'0 0.0
2017-Dec-31 12:53N 25°54' W 080°09'0 0.0
2017-Dec-31 12:23N 25°54' W 080°09'0 0.0
2017-Dec-31 11:53N 25°54' W 080°09'0 0.0
2017-Dec-31 11:05N 25°54' W 080°09'0 0.0
2017-Dec-31 10:23N 25°54' W 080°09'0 0.0
2017-Dec-31 09:53N 25°54' W 080°09'0 0.0
2017-Dec-31 09:05N 25°54' W 080°09'0 0.0
2017-Dec-31 08:53N 25°54' W 080°09'0 0.0
2017-Dec-31 08:23N 25°54' W 080°09'0 0.0
2017-Dec-31 07:53N 25°54' W 080°09'0 0.0
2017-Dec-31 06:14N 25°54' W 080°09'0 0.0
2017-Dec-31 05:11N 25°54' W 080°09'0 0.0
2017-Dec-31 04:44N 25°54' W 080°09'0 0.0
2017-Dec-31 00:20N 25°54' W 080°09'0 0.0
2017-Dec-30 23:50N 25°54' W 080°09'0 0.0
2017-Dec-30 23:17N 25°54' W 080°09'0 0.0
2017-Dec-30 23:00N 25°54' W 080°09'913.5
2017-Dec-30 22:21N 26°02' W 080°06'6 3.7
2017-Dec-30 20:51N 26°06' W 080°10'0 0.1
2017-Dec-30 19:48N 26°06' W 080°10'0 0.0
2017-Dec-29 04:13N 26°06' W 080°10'0 0.0
2017-Dec-29 03:58N 26°06' W 080°10'0 0.0
2017-Dec-28 21:04N 26°06' W 080°10'0 0.0
2017-Dec-28 18:40N 26°06' W 080°10'0 0.0
2017-Dec-28 18:10N 26°06' W 080°10'0 0.0
2017-Dec-28 17:49N 26°06' W 080°10'0 0.0
2017-Dec-28 14:28N 26°06' W 080°10'0 0.0
2017-Dec-28 05:46N 26°06' W 080°10'0 0.0
2017-Dec-27 06:49N 26°06' W 080°10'0 0.0
2017-Dec-27 06:22N 26°06' W 080°10'0 0.0
2017-Dec-27 04:18N 26°06' W 080°10'0 0.0
2017-Dec-27 03:51N 26°06' W 080°10'0 0.0
2017-Dec-26 21:00N 26°06' W 080°10'0 0.0
2017-Dec-26 20:15N 26°06' W 080°10'0 0.0
2017-Dec-26 19:42N 26°06' W 080°10'0 0.0
2017-Dec-26 19:27N 26°06' W 080°10'0 0.0
2017-Dec-26 18:57N 26°06' W 080°10'0 0.0
2017-Dec-26 18:15N 26°06' W 080°10'0 0.0
2017-Dec-26 17:57N 26°06' W 080°10'0 0.0
2017-Dec-26 17:27N 26°06' W 080°10'0 0.0
2017-Dec-26 17:00N 26°06' W 080°10'0 0.0
2017-Dec-26 16:30N 26°06' W 080°10'0 0.0
2017-Dec-26 15:57N 26°06' W 080°10'0 0.0
2017-Dec-26 15:27N 26°06' W 080°10'0 0.0
2017-Dec-26 14:48N 26°06' W 080°10'0 0.0
2017-Dec-26 14:30N 26°06' W 080°10'0 0.0
2017-Dec-26 12:33N 26°06' W 080°10'0 0.0
2017-Dec-26 12:15N 26°06' W 080°10'0 0.0
2017-Dec-26 02:27N 26°06' W 080°10'0 0.0
2017-Dec-26 01:27N 26°06' W 080°10'0 0.0
2017-Dec-26 00:57N 26°06' W 080°10'0 0.0
2017-Dec-26 00:09N 26°06' W 080°10'  

Dump ship's entire track history